Forseti — V2PV4 — position and weather

sailwx.info

Track history (hours):
 
Tides and Currents Weather Stations Pressure Air Temp Water Temp Dewpoint Dewpoint Depression Visibility Wind Speed Wind Dir Waves Ship Positions

Forseti

Last reported at 2014-Jul-31 17:34 UTC. Time now 2014-Jul-31 17:43 UTC.
Position N 54°41' E 012°53'.

Length 85 m; draft 4.3 m.

Type: Cargo ship. MMSI: 304010297.

Date/timePositionNaut miles runAvg speedWind from/ knotsBaromVisibWave heightAir tempDewpointWater temp
2014-Jul-31 17:34N 54°41' E 012°53'1010.4
2014-Jul-31 16:34N 54°38' E 012°36'1010.4
2014-Jul-31 15:33N 54°32' E 012°20'1010.1
2014-Jul-31 14:33N 54°25' E 012°09'1110.8
2014-Jul-31 13:34N 54°24' E 011°50'1010.5
2014-Jul-31 12:34N 54°28' E 011°34'1010.3
2014-Jul-31 11:33N 54°36' E 011°21'4 3.7
2014-Jul-31 10:32N 54°39' E 011°21'0 0.0
2014-Jul-31 09:17N 54°39' E 011°21'0 0.0
2014-Jul-31 08:29N 54°39' E 011°21'0 0.0
2014-Jul-31 07:20N 54°39' E 011°21'0 0.0
2014-Jul-31 06:29N 54°39' E 011°21'0 0.0
2014-Jul-31 05:29N 54°39' E 011°21'0 0.0
2014-Jul-31 04:31N 54°39' E 011°21'0 0.0
2014-Jul-31 03:10N 54°39' E 011°21'0 0.0
2014-Jul-31 02:31N 54°39' E 011°21'0 0.0
2014-Jul-31 00:22N 54°39' E 011°21'0 0.0
2014-Jul-30 21:04N 54°39' E 011°21'0 0.0
2014-Jul-30 18:28N 54°39' E 011°21'0 0.0
2014-Jul-30 17:22N 54°39' E 011°21'0 0.0
2014-Jul-30 16:31N 54°39' E 011°21'0 0.0
2014-Jul-30 15:13N 54°39' E 011°21'0 0.0
2014-Jul-30 13:22N 54°39' E 011°21'0 0.0
2014-Jul-30 12:16N 54°39' E 011°21'0 0.0
2014-Jul-30 11:31N 54°39' E 011°21'0 0.0
2014-Jul-30 10:31N 54°39' E 011°21'0 0.0
2014-Jul-30 09:22N 54°39' E 011°21'0 0.0
2014-Jul-30 08:28N 54°39' E 011°21'0 0.0
2014-Jul-30 07:28N 54°39' E 011°21'0 0.0
2014-Jul-30 06:28N 54°39' E 011°21'0 0.0
2014-Jul-30 05:28N 54°39' E 011°21'0 0.0
2014-Jul-30 04:28N 54°39' E 011°21'0 0.1
2014-Jul-30 03:33N 54°39' E 011°21'2 1.9
2014-Jul-30 02:29N 54°37' E 011°21'0 0.0
2014-Jul-30 01:32N 54°37' E 011°21'0 0.0
2014-Jul-30 00:32N 54°37' E 011°21'0 0.0
2014-Jul-29 23:32N 54°37' E 011°21'0 0.0
2014-Jul-29 22:31N 54°37' E 011°21'0 0.0
2014-Jul-29 21:31N 54°37' E 011°21'2 2.3
2014-Jul-29 20:34N 54°36' E 011°24'9 9.0
2014-Jul-29 19:33N 54°30' E 011°36'9 8.9
2014-Jul-29 18:33N 54°24' E 011°47'9 8.6
2014-Jul-29 17:34N 54°17' E 011°56'8 8.0
2014-Jul-29 16:32N 54°11' E 012°05'2 2.0
2014-Jul-29 15:18N 54°09' E 012°07'0 0.0
2014-Jul-29 14:30N 54°09' E 012°07'0 0.0
2014-Jul-29 13:18N 54°09' E 012°07'0 0.0
2014-Jul-29 12:24N 54°09' E 012°07'0 0.0
2014-Jul-29 11:30N 54°09' E 012°07'0 0.0
2014-Jul-29 08:30N 54°09' E 012°07'0 0.0
2014-Jul-29 06:26N 54°09' E 012°07'0 0.0
2014-Jul-29 05:29N 54°09' E 012°07'0 0.0
2014-Jul-29 04:32N 54°09' E 012°07'0 0.0
2014-Jul-29 03:29N 54°09' E 012°07'0 0.0
2014-Jul-29 02:29N 54°09' E 012°07'0 0.0
2014-Jul-29 01:26N 54°09' E 012°07'0 0.0
2014-Jul-29 00:32N 54°09' E 012°07'0 0.0
2014-Jul-28 23:29N 54°09' E 012°07'0 0.0
2014-Jul-28 22:29N 54°09' E 012°07'0 0.0
2014-Jul-28 21:26N 54°09' E 012°07'0 0.0
2014-Jul-28 20:29N 54°09' E 012°07'0 0.1
2014-Jul-28 19:32N 54°09' E 012°07'0 0.0
2014-Jul-28 18:23N 54°09' E 012°07'0 0.0
2014-Jul-28 16:32N 54°09' E 012°07'0 0.0
2014-Jul-28 15:23N 54°09' E 012°07'0 0.0
2014-Jul-28 14:31N 54°09' E 012°07'0 0.0
2014-Jul-28 13:13N 54°09' E 012°07'0 0.0
2014-Jul-28 12:28N 54°09' E 012°07'0 0.0
2014-Jul-28 11:28N 54°09' E 012°07'0 0.0
2014-Jul-28 10:28N 54°09' E 012°07'0 0.0
2014-Jul-28 09:28N 54°09' E 012°07'0 0.0
2014-Jul-28 08:22N 54°09' E 012°07'0 0.0
2014-Jul-28 07:31N 54°09' E 012°07'0 0.0
2014-Jul-28 06:22N 54°09' E 012°07'0 0.0
2014-Jul-28 05:31N 54°09' E 012°07'0 0.0
2014-Jul-28 04:31N 54°09' E 012°07'0 0.0
2014-Jul-28 03:31N 54°09' E 012°07'0 0.0
2014-Jul-28 02:19N 54°09' E 012°07'0 0.0
2014-Jul-28 01:28N 54°09' E 012°07'0 0.0
2014-Jul-28 00:28N 54°09' E 012°07'0 0.0
2014-Jul-27 23:28N 54°09' E 012°07'0 0.0
2014-Jul-27 22:28N 54°09' E 012°07'0 0.0
2014-Jul-27 21:28N 54°09' E 012°07'0 0.0
2014-Jul-27 20:28N 54°09' E 012°07'0 0.0
2014-Jul-27 19:22N 54°09' E 012°07'0 0.0
2014-Jul-27 18:28N 54°09' E 012°07'0 0.0
2014-Jul-27 17:28N 54°09' E 012°07'0 0.0
2014-Jul-27 16:28N 54°09' E 012°07'0 0.0
2014-Jul-27 15:28N 54°09' E 012°07'0 0.0
2014-Jul-27 14:28N 54°09' E 012°07'0 0.0
2014-Jul-27 13:28N 54°09' E 012°07'0 0.0
2014-Jul-27 12:28N 54°09' E 012°07'0 0.0
2014-Jul-27 11:22N 54°09' E 012°07'0 0.0
2014-Jul-27 08:31N 54°09' E 012°07'0 0.0
2014-Jul-27 07:28N 54°09' E 012°07'0 0.0
2014-Jul-27 06:28N 54°09' E 012°07'0 0.0
2014-Jul-27 05:28N 54°09' E 012°07'0 0.0
2014-Jul-27 04:16N 54°09' E 012°07'0 0.0
2014-Jul-27 03:28N 54°09' E 012°07'0 0.0
2014-Jul-27 02:28N 54°09' E 012°07'0 0.0
2014-Jul-27 01:16N 54°09' E 012°07'0 0.0
2014-Jul-27 00:10N 54°09' E 012°07'0 0.0
2014-Jul-26 23:34N 54°09' E 012°07'0 0.0
2014-Jul-26 22:27N 54°09' E 012°07'0 0.0
2014-Jul-26 21:33N 54°09' E 012°07'0 0.0
2014-Jul-26 20:33N 54°09' E 012°07'0 0.0
2014-Jul-26 19:21N 54°09' E 012°07'0 0.0
2014-Jul-26 18:30N 54°09' E 012°07'0 0.0
2014-Jul-26 17:15N 54°09' E 012°07'0 0.1
2014-Jul-26 15:32N 54°09' E 012°07'6 5.8
2014-Jul-26 14:33N 54°14' E 012°02'9 9.1
2014-Jul-26 13:33N 54°19' E 011°50'9 9.3
2014-Jul-26 12:33N 54°25' E 011°37'9 9.0
2014-Jul-26 11:33N 54°31' E 011°24'9 8.9
2014-Jul-26 10:33N 54°34' E 011°10'10 9.2
2014-Jul-26 09:29N 54°34' E 010°53'55 6.8
2014-Jul-26 01:23N 54°11' E 009°28'3 3.4
2014-Jul-26 00:32N 54°09' E 009°23'8 7.5
2014-Jul-25 23:32N 54°03' E 009°18'5 4.7
2014-Jul-25 22:33N 53°58' E 009°16'6 6.3
2014-Jul-25 21:33N 53°54' E 009°09'6 5.8
2014-Jul-25 20:34N 53°51' E 008°60'9 8.9
2014-Jul-25 19:33N 53°51' E 008°45'9 9.2
2014-Jul-25 18:34N 53°58' E 008°34'8 8.2
2014-Jul-25 17:33N 53°59' E 008°20'1010.2
2014-Jul-25 16:33N 53°58' E 008°03'10 9.5
2014-Jul-25 15:33N 53°56' E 007°47'20 8.5
2014-Jul-25 13:10N 53°51' E 007°14'7 8.5
2014-Jul-25 12:23N 53°50' E 007°03'8 8.8
2014-Jul-25 11:32N 53°48' E 006°50'9 9.2
2014-Jul-25 10:30N 53°46' E 006°35'11 9.7
2014-Jul-25 09:23N 53°43' E 006°17'810.0
2014-Jul-25 08:33N 53°40' E 006°04'1010.4
2014-Jul-25 07:33N 53°37' E 005°47'1110.5
2014-Jul-25 06:33N 53°34' E 005°30'1110.6
2014-Jul-25 05:33N 53°31' E 005°13'1110.9
2014-Jul-25 04:33N 53°27' E 004°56'1110.7
2014-Jul-25 03:33N 53°21' E 004°42'1111.4
2014-Jul-25 02:33N 53°11' E 004°32'1110.9
2014-Jul-25 01:33N 53°01' E 004°23'1010.1
2014-Jul-25 00:33N 52°52' E 004°16'9 9.3
2014-Jul-24 23:34N 52°45' E 004°07'8 8.5
2014-Jul-24 22:33N 52°39' E 003°57'8 8.1
2014-Jul-24 21:31N 52°32' E 003°48'8 8.1
2014-Jul-24 20:33N 52°27' E 003°39'8 8.2
2014-Jul-24 19:33N 52°21' E 003°30'8 8.0
2014-Jul-24 18:33N 52°15' E 003°21'8 8.1
2014-Jul-24 17:33N 52°09' E 003°12'9 8.7
2014-Jul-24 16:33N 52°03' E 003°02'10 9.4
2014-Jul-24 15:32N 51°56' E 002°51'1010.0
2014-Jul-24 14:33N 51°49' E 002°40'1010.4
2014-Jul-24 13:33N 51°41' E 002°29'1110.8
2014-Jul-24 12:33N 51°33' E 002°18'1111.0
2014-Jul-24 11:32N 51°25' E 002°06'1110.8
2014-Jul-24 10:33N 51°16' E 001°54'1110.9
2014-Jul-24 09:33N 51°08' E 001°43'1110.5
2014-Jul-24 08:32N 50°59' E 001°33'9 9.6
2014-Jul-24 07:33N 50°51' E 001°27'9 8.9
2014-Jul-24 06:33N 50°43' E 001°22'9 8.6
2014-Jul-24 05:33N 50°37' E 001°12'19 8.4
2014-Jul-24 03:20N 50°28' E 000°46'7 8.3
2014-Jul-24 02:28N 50°26' E 000°35'34 8.1
2014-Jul-23 22:18N 50°22' W 000°17'2910.0
2014-Jul-23 19:26N 50°28' W 001°01'3411.5
2014-Jul-23 16:26N 50°39' W 001°53'  
Track history (hours):
 
Tides and Currents Weather Stations Pressure Air Temp Water Temp Dewpoint Dewpoint Depression Visibility Wind Speed Wind Dir Waves Ship Positions

Forseti

Last reported at 2014-Jul-31 17:34 UTC. Time now 2014-Jul-31 17:43 UTC.
Position N 54°41' E 012°53'.

Length 85 m; draft 4.3 m.

Type: Cargo ship. MMSI: 304010297.

Date/timePositionNaut miles runAvg speedWind from/ knotsBaromVisibWave heightAir tempDewpointWater temp
2014-Jul-31 17:34N 54°41' E 012°53'1010.4
2014-Jul-31 16:34N 54°38' E 012°36'1010.4
2014-Jul-31 15:33N 54°32' E 012°20'1010.1
2014-Jul-31 14:33N 54°25' E 012°09'1110.8
2014-Jul-31 13:34N 54°24' E 011°50'1010.5
2014-Jul-31 12:34N 54°28' E 011°34'1010.3
2014-Jul-31 11:33N 54°36' E 011°21'4 3.7
2014-Jul-31 10:32N 54°39' E 011°21'0 0.0
2014-Jul-31 09:17N 54°39' E 011°21'0 0.0
2014-Jul-31 08:29N 54°39' E 011°21'0 0.0
2014-Jul-31 07:20N 54°39' E 011°21'0 0.0
2014-Jul-31 06:29N 54°39' E 011°21'0 0.0
2014-Jul-31 05:29N 54°39' E 011°21'0 0.0
2014-Jul-31 04:31N 54°39' E 011°21'0 0.0
2014-Jul-31 03:10N 54°39' E 011°21'0 0.0
2014-Jul-31 02:31N 54°39' E 011°21'0 0.0
2014-Jul-31 00:22N 54°39' E 011°21'0 0.0
2014-Jul-30 21:04N 54°39' E 011°21'0 0.0
2014-Jul-30 18:28N 54°39' E 011°21'0 0.0
2014-Jul-30 17:22N 54°39' E 011°21'0 0.0
2014-Jul-30 16:31N 54°39' E 011°21'0 0.0
2014-Jul-30 15:13N 54°39' E 011°21'0 0.0
2014-Jul-30 13:22N 54°39' E 011°21'0 0.0
2014-Jul-30 12:16N 54°39' E 011°21'0 0.0
2014-Jul-30 11:31N 54°39' E 011°21'0 0.0
2014-Jul-30 10:31N 54°39' E 011°21'0 0.0
2014-Jul-30 09:22N 54°39' E 011°21'0 0.0
2014-Jul-30 08:28N 54°39' E 011°21'0 0.0
2014-Jul-30 07:28N 54°39' E 011°21'0 0.0
2014-Jul-30 06:28N 54°39' E 011°21'0 0.0
2014-Jul-30 05:28N 54°39' E 011°21'0 0.0
2014-Jul-30 04:28N 54°39' E 011°21'0 0.1
2014-Jul-30 03:33N 54°39' E 011°21'2 1.9
2014-Jul-30 02:29N 54°37' E 011°21'0 0.0
2014-Jul-30 01:32N 54°37' E 011°21'0 0.0
2014-Jul-30 00:32N 54°37' E 011°21'0 0.0
2014-Jul-29 23:32N 54°37' E 011°21'0 0.0
2014-Jul-29 22:31N 54°37' E 011°21'0 0.0
2014-Jul-29 21:31N 54°37' E 011°21'2 2.3
2014-Jul-29 20:34N 54°36' E 011°24'9 9.0
2014-Jul-29 19:33N 54°30' E 011°36'9 8.9
2014-Jul-29 18:33N 54°24' E 011°47'9 8.6
2014-Jul-29 17:34N 54°17' E 011°56'8 8.0
2014-Jul-29 16:32N 54°11' E 012°05'2 2.0
2014-Jul-29 15:18N 54°09' E 012°07'0 0.0
2014-Jul-29 14:30N 54°09' E 012°07'0 0.0
2014-Jul-29 13:18N 54°09' E 012°07'0 0.0
2014-Jul-29 12:24N 54°09' E 012°07'0 0.0
2014-Jul-29 11:30N 54°09' E 012°07'0 0.0
2014-Jul-29 08:30N 54°09' E 012°07'0 0.0
2014-Jul-29 06:26N 54°09' E 012°07'0 0.0
2014-Jul-29 05:29N 54°09' E 012°07'0 0.0
2014-Jul-29 04:32N 54°09' E 012°07'0 0.0
2014-Jul-29 03:29N 54°09' E 012°07'0 0.0
2014-Jul-29 02:29N 54°09' E 012°07'0 0.0
2014-Jul-29 01:26N 54°09' E 012°07'0 0.0
2014-Jul-29 00:32N 54°09' E 012°07'0 0.0
2014-Jul-28 23:29N 54°09' E 012°07'0 0.0
2014-Jul-28 22:29N 54°09' E 012°07'0 0.0
2014-Jul-28 21:26N 54°09' E 012°07'0 0.0
2014-Jul-28 20:29N 54°09' E 012°07'0 0.1
2014-Jul-28 19:32N 54°09' E 012°07'0 0.0
2014-Jul-28 18:23N 54°09' E 012°07'0 0.0
2014-Jul-28 16:32N 54°09' E 012°07'0 0.0
2014-Jul-28 15:23N 54°09' E 012°07'0 0.0
2014-Jul-28 14:31N 54°09' E 012°07'0 0.0
2014-Jul-28 13:13N 54°09' E 012°07'0 0.0
2014-Jul-28 12:28N 54°09' E 012°07'0 0.0
2014-Jul-28 11:28N 54°09' E 012°07'0 0.0
2014-Jul-28 10:28N 54°09' E 012°07'0 0.0
2014-Jul-28 09:28N 54°09' E 012°07'0 0.0
2014-Jul-28 08:22N 54°09' E 012°07'0 0.0
2014-Jul-28 07:31N 54°09' E 012°07'0 0.0
2014-Jul-28 06:22N 54°09' E 012°07'0 0.0
2014-Jul-28 05:31N 54°09' E 012°07'0 0.0
2014-Jul-28 04:31N 54°09' E 012°07'0 0.0
2014-Jul-28 03:31N 54°09' E 012°07'0 0.0
2014-Jul-28 02:19N 54°09' E 012°07'0 0.0
2014-Jul-28 01:28N 54°09' E 012°07'0 0.0
2014-Jul-28 00:28N 54°09' E 012°07'0 0.0
2014-Jul-27 23:28N 54°09' E 012°07'0 0.0
2014-Jul-27 22:28N 54°09' E 012°07'0 0.0
2014-Jul-27 21:28N 54°09' E 012°07'0 0.0
2014-Jul-27 20:28N 54°09' E 012°07'0 0.0
2014-Jul-27 19:22N 54°09' E 012°07'0 0.0
2014-Jul-27 18:28N 54°09' E 012°07'0 0.0
2014-Jul-27 17:28N 54°09' E 012°07'0 0.0
2014-Jul-27 16:28N 54°09' E 012°07'0 0.0
2014-Jul-27 15:28N 54°09' E 012°07'0 0.0
2014-Jul-27 14:28N 54°09' E 012°07'0 0.0
2014-Jul-27 13:28N 54°09' E 012°07'0 0.0
2014-Jul-27 12:28N 54°09' E 012°07'0 0.0
2014-Jul-27 11:22N 54°09' E 012°07'0 0.0
2014-Jul-27 08:31N 54°09' E 012°07'0 0.0
2014-Jul-27 07:28N 54°09' E 012°07'0 0.0
2014-Jul-27 06:28N 54°09' E 012°07'0 0.0
2014-Jul-27 05:28N 54°09' E 012°07'0 0.0
2014-Jul-27 04:16N 54°09' E 012°07'0 0.0
2014-Jul-27 03:28N 54°09' E 012°07'0 0.0
2014-Jul-27 02:28N 54°09' E 012°07'0 0.0
2014-Jul-27 01:16N 54°09' E 012°07'0 0.0
2014-Jul-27 00:10N 54°09' E 012°07'0 0.0
2014-Jul-26 23:34N 54°09' E 012°07'0 0.0
2014-Jul-26 22:27N 54°09' E 012°07'0 0.0
2014-Jul-26 21:33N 54°09' E 012°07'0 0.0
2014-Jul-26 20:33N 54°09' E 012°07'0 0.0
2014-Jul-26 19:21N 54°09' E 012°07'0 0.0
2014-Jul-26 18:30N 54°09' E 012°07'0 0.0
2014-Jul-26 17:15N 54°09' E 012°07'0 0.1
2014-Jul-26 15:32N 54°09' E 012°07'6 5.8
2014-Jul-26 14:33N 54°14' E 012°02'9 9.1
2014-Jul-26 13:33N 54°19' E 011°50'9 9.3
2014-Jul-26 12:33N 54°25' E 011°37'9 9.0
2014-Jul-26 11:33N 54°31' E 011°24'9 8.9
2014-Jul-26 10:33N 54°34' E 011°10'10 9.2
2014-Jul-26 09:29N 54°34' E 010°53'55 6.8
2014-Jul-26 01:23N 54°11' E 009°28'3 3.4
2014-Jul-26 00:32N 54°09' E 009°23'8 7.5
2014-Jul-25 23:32N 54°03' E 009°18'5 4.7
2014-Jul-25 22:33N 53°58' E 009°16'6 6.3
2014-Jul-25 21:33N 53°54' E 009°09'6 5.8
2014-Jul-25 20:34N 53°51' E 008°60'9 8.9
2014-Jul-25 19:33N 53°51' E 008°45'9 9.2
2014-Jul-25 18:34N 53°58' E 008°34'8 8.2
2014-Jul-25 17:33N 53°59' E 008°20'1010.2
2014-Jul-25 16:33N 53°58' E 008°03'10 9.5
2014-Jul-25 15:33N 53°56' E 007°47'20 8.5
2014-Jul-25 13:10N 53°51' E 007°14'7 8.5
2014-Jul-25 12:23N 53°50' E 007°03'8 8.8
2014-Jul-25 11:32N 53°48' E 006°50'9 9.2
2014-Jul-25 10:30N 53°46' E 006°35'11 9.7
2014-Jul-25 09:23N 53°43' E 006°17'810.0
2014-Jul-25 08:33N 53°40' E 006°04'1010.4
2014-Jul-25 07:33N 53°37' E 005°47'1110.5
2014-Jul-25 06:33N 53°34' E 005°30'1110.6
2014-Jul-25 05:33N 53°31' E 005°13'1110.9
2014-Jul-25 04:33N 53°27' E 004°56'1110.7
2014-Jul-25 03:33N 53°21' E 004°42'1111.4
2014-Jul-25 02:33N 53°11' E 004°32'1110.9
2014-Jul-25 01:33N 53°01' E 004°23'1010.1
2014-Jul-25 00:33N 52°52' E 004°16'9 9.3
2014-Jul-24 23:34N 52°45' E 004°07'8 8.5
2014-Jul-24 22:33N 52°39' E 003°57'8 8.1
2014-Jul-24 21:31N 52°32' E 003°48'8 8.1
2014-Jul-24 20:33N 52°27' E 003°39'8 8.2
2014-Jul-24 19:33N 52°21' E 003°30'8 8.0
2014-Jul-24 18:33N 52°15' E 003°21'8 8.1
2014-Jul-24 17:33N 52°09' E 003°12'9 8.7
2014-Jul-24 16:33N 52°03' E 003°02'10 9.4
2014-Jul-24 15:32N 51°56' E 002°51'1010.0
2014-Jul-24 14:33N 51°49' E 002°40'1010.4
2014-Jul-24 13:33N 51°41' E 002°29'1110.8
2014-Jul-24 12:33N 51°33' E 002°18'1111.0
2014-Jul-24 11:32N 51°25' E 002°06'1110.8
2014-Jul-24 10:33N 51°16' E 001°54'1110.9
2014-Jul-24 09:33N 51°08' E 001°43'1110.5
2014-Jul-24 08:32N 50°59' E 001°33'9 9.6
2014-Jul-24 07:33N 50°51' E 001°27'9 8.9
2014-Jul-24 06:33N 50°43' E 001°22'9 8.6
2014-Jul-24 05:33N 50°37' E 001°12'19 8.4
2014-Jul-24 03:20N 50°28' E 000°46'7 8.3
2014-Jul-24 02:28N 50°26' E 000°35'34 8.1
2014-Jul-23 22:18N 50°22' W 000°17'2910.0
2014-Jul-23 19:26N 50°28' W 001°01'3411.5
2014-Jul-23 16:26N 50°39' W 001°53'  

Dump ship's entire track history